createdAt,value
2023-03-07T00:00:20.505Z,7.93
2023-03-07T00:02:51.887Z,7.80
2023-03-07T00:05:19.684Z,7.60
2023-03-07T00:07:47.383Z,7.82
2023-03-07T00:10:15.189Z,7.20
2023-03-07T00:12:42.788Z,7.75
2023-03-07T00:15:12.500Z,8.30
2023-03-07T00:17:40.988Z,7.20
2023-03-07T00:20:11.071Z,7.75
2023-03-07T00:22:38.849Z,7.80
2023-03-07T00:25:07.023Z,7.32
2023-03-07T00:27:35.049Z,8.07
2023-03-07T00:30:02.799Z,7.82
2023-03-07T00:32:32.450Z,8.18
2023-03-07T00:35:01.490Z,7.30
2023-03-07T00:37:30.714Z,7.00
2023-03-07T00:39:58.243Z,7.30
2023-03-07T00:42:26.049Z,7.70
2023-03-07T00:44:53.702Z,7.78
2023-03-07T00:47:21.770Z,8.18
2023-03-07T00:49:50.768Z,7.45
2023-03-07T00:52:18.382Z,7.88
2023-03-07T00:54:45.926Z,8.30
2023-03-07T00:57:13.539Z,6.72
2023-03-07T00:59:41.090Z,7.88
2023-03-07T01:02:08.671Z,8.40
2023-03-07T01:04:36.319Z,8.23
2023-03-07T01:07:05.393Z,7.28
2023-03-07T01:09:32.942Z,7.18
2023-03-07T01:12:00.518Z,7.47
2023-03-07T01:14:28.093Z,7.55
2023-03-07T01:16:55.652Z,7.07
2023-03-07T01:19:24.151Z,7.75
2023-03-07T01:21:51.734Z,7.45
2023-03-07T01:24:20.704Z,8.13
2023-03-07T01:26:49.009Z,8.23
2023-03-07T01:29:16.582Z,7.78
2023-03-07T01:31:44.208Z,8.07
2023-03-07T01:34:11.770Z,7.30
2023-03-07T01:36:39.532Z,7.97
2023-03-07T01:39:10.389Z,6.97
2023-03-07T01:41:39.729Z,7.88
2023-03-07T01:44:16.067Z,7.82
2023-03-07T01:46:47.529Z,7.47
2023-03-07T01:49:25.679Z,7.50
2023-03-07T01:51:58.213Z,7.28
2023-03-07T01:54:27.176Z,7.65
2023-03-07T01:56:56.438Z,8.15
2023-03-07T01:59:29.360Z,8.07
2023-03-07T02:02:00.999Z,7.28
2023-03-07T02:04:35.313Z,6.70
2023-03-07T02:07:04.282Z,7.00
2023-03-07T02:09:33.859Z,7.30
2023-03-07T02:12:03.056Z,7.95
2023-03-07T02:14:30.620Z,7.28
2023-03-07T02:16:58.435Z,6.72
2023-03-07T02:19:49.563Z,7.60
2023-03-07T02:22:19.801Z,7.55
2023-03-07T02:24:52.823Z,7.20
2023-03-07T02:27:21.896Z,7.53
2023-03-07T02:29:49.495Z,7.07
2023-03-07T02:32:17.199Z,7.20
2023-03-07T02:34:44.840Z,6.75
2023-03-07T02:37:14.824Z,8.57
2023-03-07T02:39:44.485Z,7.40
2023-03-07T02:42:15.592Z,7.63
2023-03-07T02:44:46.799Z,7.47
2023-03-07T02:47:14.648Z,7.78
2023-03-07T02:49:42.217Z,7.88
2023-03-07T02:52:10.559Z,8.07
2023-03-07T02:54:38.231Z,7.68
2023-03-07T02:57:06.175Z,8.70
2023-03-07T02:59:33.963Z,8.23
2023-03-07T03:02:03.004Z,7.72
2023-03-07T03:04:30.595Z,8.85
2023-03-07T03:06:58.250Z,7.35
2023-03-07T03:09:26.116Z,7.60
2023-03-07T03:11:53.799Z,8.52
2023-03-07T03:14:21.416Z,8.43
2023-03-07T03:16:49.570Z,8.27
2023-03-07T03:19:18.487Z,7.65
2023-03-07T03:21:46.092Z,7.80
2023-03-07T03:24:13.832Z,8.30
2023-03-07T03:26:41.450Z,7.30
2023-03-07T03:29:09.827Z,9.30
2023-03-07T03:31:37.479Z,8.02
2023-03-07T03:34:05.919Z,8.57
2023-03-07T03:36:35.100Z,8.55
2023-03-07T03:39:03.767Z,7.97
2023-03-07T03:41:31.322Z,9.63
2023-03-07T03:43:58.922Z,9.20
2023-03-07T03:46:27.051Z,7.40
2023-03-07T03:48:55.501Z,8.70
2023-03-07T03:51:24.322Z,8.23
2023-03-07T03:53:53.497Z,8.57
2023-03-07T03:56:23.365Z,8.45
2023-03-07T03:58:52.919Z,8.68
2023-03-07T04:01:22.063Z,8.23
2023-03-07T04:03:52.190Z,8.30
2023-03-07T04:06:22.134Z,8.88
2023-03-07T04:08:50.201Z,9.20
2023-03-07T04:11:19.351Z,8.27
2023-03-07T04:13:47.144Z,8.98
2023-03-07T04:16:14.967Z,8.90
2023-03-07T04:18:42.908Z,7.88
2023-03-07T04:21:11.632Z,8.35
2023-03-07T04:23:39.552Z,9.00
2023-03-07T04:26:08.627Z,8.40
2023-03-07T04:28:45.691Z,8.45
2023-03-07T04:31:15.381Z,8.45
2023-03-07T04:33:43.312Z,8.40
2023-03-07T04:36:11.328Z,8.38
2023-03-07T04:38:40.406Z,8.15
2023-03-07T04:41:08.659Z,8.02
2023-03-07T04:43:37.550Z,8.32
2023-03-07T04:46:05.567Z,7.72
2023-03-07T04:48:33.148Z,8.52
2023-03-07T04:51:00.905Z,8.63
2023-03-07T04:53:28.666Z,8.52
2023-03-07T04:55:58.805Z,7.85
2023-03-07T04:58:26.613Z,8.30
2023-03-07T05:00:56.885Z,7.97
2023-03-07T05:03:26.261Z,8.10
2023-03-07T05:05:54.762Z,8.57
2023-03-07T05:08:23.181Z,8.68
2023-03-07T05:10:50.943Z,8.23
2023-03-07T05:13:18.514Z,8.05
2023-03-07T05:15:51.745Z,8.18
2023-03-07T05:18:21.045Z,8.18
2023-03-07T05:20:49.902Z,8.02
2023-03-07T05:23:18.264Z,8.75
2023-03-07T05:25:46.887Z,8.63
2023-03-07T05:28:14.598Z,8.80
2023-03-07T05:30:42.288Z,7.72
2023-03-07T05:33:12.132Z,7.80
2023-03-07T05:35:41.369Z,7.97
2023-03-07T05:38:09.021Z,7.88
2023-03-07T05:40:36.739Z,8.43
2023-03-07T05:43:04.878Z,8.20
2023-03-07T05:45:32.613Z,8.30
2023-03-07T05:48:00.155Z,8.80
2023-03-07T05:50:27.891Z,8.15
2023-03-07T05:53:01.246Z,7.95
2023-03-07T05:55:28.945Z,8.05
2023-03-07T05:57:56.518Z,7.80
2023-03-07T06:00:24.650Z,8.43
2023-03-07T06:02:52.210Z,8.30
2023-03-07T06:05:19.902Z,18.20
2023-03-07T06:07:47.487Z,14.80
2023-03-07T06:10:16.791Z,9.48
2023-03-07T06:12:44.325Z,7.65
2023-03-07T06:15:12.273Z,7.65
2023-03-07T06:17:40.755Z,7.80
2023-03-07T06:20:09.435Z,8.90
2023-03-07T06:22:38.216Z,7.90
2023-03-07T06:25:06.613Z,7.82
2023-03-07T06:27:36.836Z,7.97
2023-03-07T06:30:06.530Z,7.95
2023-03-07T06:32:34.350Z,8.60
2023-03-07T06:35:01.896Z,8.38
2023-03-07T06:37:29.423Z,8.63
2023-03-07T06:39:56.977Z,8.02
2023-03-07T06:42:24.552Z,8.27
2023-03-07T06:44:54.068Z,8.20
2023-03-07T06:47:21.621Z,9.00
2023-03-07T06:49:49.587Z,7.88
2023-03-07T06:52:17.397Z,9.48
2023-03-07T06:54:44.959Z,8.25
2023-03-07T06:57:12.523Z,7.85
2023-03-07T06:59:40.056Z,7.38
2023-03-07T07:02:14.247Z,7.90
2023-03-07T07:04:41.798Z,7.40
2023-03-07T07:07:09.481Z,7.65
2023-03-07T07:09:37.009Z,8.27
2023-03-07T07:12:05.982Z,8.18
2023-03-07T07:14:34.520Z,7.57
2023-03-07T07:17:02.205Z,8.18
2023-03-07T07:19:31.943Z,8.00
2023-03-07T07:21:59.626Z,7.47
2023-03-07T07:24:27.601Z,7.45
2023-03-07T07:26:55.828Z,7.97
2023-03-07T07:29:23.514Z,7.50
2023-03-07T07:31:51.086Z,7.88
2023-03-07T07:34:18.827Z,7.80
2023-03-07T07:36:47.698Z,7.95
2023-03-07T07:39:17.600Z,8.25
2023-03-07T07:41:45.766Z,7.53
2023-03-07T07:44:13.328Z,7.28
2023-03-07T07:46:40.827Z,7.55
2023-03-07T07:49:08.599Z,7.97
2023-03-07T07:51:36.148Z,7.03
2023-03-07T07:54:05.102Z,7.50
2023-03-07T07:56:32.604Z,6.80
2023-03-07T07:59:00.096Z,6.50
2023-03-07T08:01:27.656Z,7.78
2023-03-07T08:03:55.327Z,8.10
2023-03-07T08:06:25.361Z,7.60
2023-03-07T08:08:53.857Z,7.22
2023-03-07T08:11:24.014Z,7.55
2023-03-07T08:13:51.944Z,7.18
2023-03-07T08:16:22.490Z,7.28
2023-03-07T08:18:52.537Z,7.43
2023-03-07T08:21:21.178Z,7.55
2023-03-07T08:23:48.741Z,7.13
2023-03-07T08:26:17.586Z,8.25
2023-03-07T08:28:46.629Z,7.32
2023-03-07T08:31:16.513Z,8.52
2023-03-07T08:33:44.733Z,7.20
2023-03-07T08:36:12.257Z,6.35
2023-03-07T08:38:39.783Z,6.88
2023-03-07T08:41:09.269Z,7.45
2023-03-07T08:43:39.165Z,6.93
2023-03-07T08:46:08.301Z,7.00
2023-03-07T08:48:36.110Z,8.30
2023-03-07T08:51:08.271Z,6.38
2023-03-07T08:53:36.174Z,7.57
2023-03-07T08:56:07.504Z,6.63
2023-03-07T08:58:35.105Z,6.25
2023-03-07T09:01:03.582Z,6.75
2023-03-07T09:03:32.743Z,7.35
2023-03-07T09:06:00.380Z,6.70
2023-03-07T09:08:27.947Z,6.82
2023-03-07T09:10:55.642Z,6.78
2023-03-07T09:13:23.161Z,6.93
2023-03-07T09:15:50.793Z,5.97
2023-03-07T09:18:18.427Z,6.43
2023-03-07T09:20:47.230Z,6.78
2023-03-07T09:23:14.713Z,5.97
2023-03-07T09:25:42.257Z,5.85
2023-03-07T09:28:09.777Z,6.25
2023-03-07T09:30:38.326Z,6.10
2023-03-07T09:33:05.858Z,6.10
2023-03-07T09:35:33.403Z,6.85
2023-03-07T09:38:02.798Z,6.68
2023-03-07T09:40:30.658Z,7.22
2023-03-07T09:43:09.867Z,6.85
2023-03-07T09:45:47.477Z,6.35
2023-03-07T09:48:56.219Z,6.78
2023-03-07T09:51:27.209Z,6.72
2023-03-07T09:54:00.164Z,6.25
2023-03-07T09:56:33.512Z,6.50
2023-03-07T09:59:21.770Z,7.55
2023-03-07T10:01:53.547Z,7.85
2023-03-07T10:04:27.064Z,6.88
2023-03-07T10:06:58.341Z,7.00
2023-03-07T10:09:29.131Z,6.90
2023-03-07T10:12:19.056Z,6.15
2023-03-07T10:15:05.218Z,6.45
2023-03-07T10:17:51.489Z,6.00
2023-03-07T10:20:25.226Z,5.70
2023-03-07T10:23:00.420Z,7.07
2023-03-07T10:25:32.709Z,6.55
2023-03-07T10:28:13.041Z,9.15
2023-03-07T10:30:40.555Z,6.72
2023-03-07T10:33:17.666Z,6.22
2023-03-07T10:35:51.096Z,5.20
2023-03-07T10:38:29.454Z,4.60
2023-03-07T10:41:03.612Z,5.53
2023-03-07T10:43:34.096Z,5.25
2023-03-07T10:46:23.830Z,6.43
2023-03-07T10:48:54.440Z,5.38
2023-03-07T10:51:34.547Z,5.53
2023-03-07T10:54:03.178Z,5.13
2023-03-07T10:56:32.090Z,5.80
2023-03-07T10:59:01.753Z,6.25
2023-03-07T11:01:31.333Z,6.00
2023-03-07T11:04:02.042Z,6.00
2023-03-07T11:06:36.720Z,5.70
2023-03-07T11:09:24.728Z,6.30
2023-03-07T11:11:56.655Z,5.65
2023-03-07T11:14:25.059Z,5.45
2023-03-07T11:16:55.933Z,5.10
2023-03-07T11:19:37.026Z,4.65
2023-03-07T11:22:06.330Z,5.35
2023-03-07T11:24:38.438Z,5.60
2023-03-07T11:27:07.719Z,5.43
2023-03-07T11:29:35.272Z,5.85
2023-03-07T11:32:10.452Z,5.70
2023-03-07T11:34:44.992Z,5.70
2023-03-07T11:37:28.809Z,4.47
2023-03-07T11:40:12.980Z,5.22
2023-03-07T11:42:48.090Z,4.50
2023-03-07T11:45:30.498Z,4.95
2023-03-07T11:48:11.317Z,5.65
2023-03-07T11:50:41.857Z,5.60
2023-03-07T11:53:30.537Z,4.90
2023-03-07T11:56:11.781Z,5.63
2023-03-07T11:58:55.520Z,5.57
2023-03-07T12:01:30.076Z,5.40
2023-03-07T12:04:38.179Z,4.97
2023-03-07T12:07:14.648Z,5.20
2023-03-07T12:09:52.300Z,5.45
2023-03-07T12:12:37.541Z,5.90
2023-03-07T12:15:24.445Z,5.18
2023-03-07T12:18:04.193Z,5.50
2023-03-07T12:20:38.700Z,5.20
2023-03-07T12:23:15.357Z,4.68
2023-03-07T12:25:45.870Z,5.43
2023-03-07T12:28:20.933Z,5.70
2023-03-07T12:31:01.291Z,5.10
2023-03-07T12:33:47.253Z,6.15
2023-03-07T12:36:23.644Z,5.28
2023-03-07T12:38:56.218Z,5.72
2023-03-07T12:41:36.815Z,5.88
2023-03-07T12:44:11.831Z,6.65
2023-03-07T12:46:48.536Z,6.25
2023-03-07T12:49:22.677Z,6.80
2023-03-07T12:51:53.592Z,7.05
2023-03-07T12:54:28.364Z,6.80
2023-03-07T12:57:00.465Z,6.13
2023-03-07T12:59:30.069Z,6.00
2023-03-07T13:02:03.967Z,6.78
2023-03-07T13:04:36.443Z,6.95
2023-03-07T13:07:09.676Z,6.45
2023-03-07T13:09:40.352Z,6.90
2023-03-07T13:12:26.925Z,6.07
2023-03-07T13:14:55.954Z,6.45
2023-03-07T13:18:02.586Z,6.97
2023-03-07T13:20:43.467Z,6.30
2023-03-07T13:23:25.367Z,5.60
2023-03-07T13:26:05.684Z,5.80
2023-03-07T13:28:52.030Z,5.90
2023-03-07T13:31:45.829Z,6.22
2023-03-07T13:34:52.342Z,5.75
2023-03-07T13:37:56.897Z,6.45
2023-03-07T13:40:54.633Z,6.53
2023-03-07T13:44:04.667Z,7.32
2023-03-07T13:46:54.181Z,6.30
2023-03-07T13:49:46.258Z,5.65
2023-03-07T13:52:37.772Z,5.78
2023-03-07T13:55:24.979Z,6.32
2023-03-07T13:57:56.875Z,6.70
2023-03-07T14:00:31.974Z,6.60
2023-03-07T14:03:00.250Z,6.65
2023-03-07T14:05:30.145Z,6.65
2023-03-07T14:08:00.071Z,6.10
2023-03-07T14:10:32.752Z,6.70
2023-03-07T14:13:24.908Z,6.07
2023-03-07T14:16:12.861Z,6.30
2023-03-07T14:18:53.747Z,5.30
2023-03-07T14:21:31.828Z,6.55
2023-03-07T14:24:15.499Z,6.22
2023-03-07T14:26:49.918Z,4.85
2023-03-07T14:29:22.501Z,4.75
2023-03-07T14:31:53.399Z,4.85
2023-03-07T14:34:28.330Z,4.75
2023-03-07T14:36:57.980Z,4.30
2023-03-07T14:39:31.015Z,4.72
2023-03-07T14:42:11.997Z,4.65
2023-03-07T14:44:58.441Z,4.30
2023-03-07T14:47:37.215Z,4.57
2023-03-07T14:50:11.479Z,4.25
2023-03-07T14:52:40.161Z,4.80
2023-03-07T14:55:15.556Z,3.42
2023-03-07T14:57:49.552Z,4.18
2023-03-07T15:00:25.540Z,3.58
2023-03-07T15:02:54.941Z,3.88
2023-03-07T15:05:24.549Z,4.72
2023-03-07T15:07:54.887Z,3.85
2023-03-07T15:10:27.943Z,4.40
2023-03-07T15:12:58.588Z,4.22
2023-03-07T15:15:34.445Z,4.13
2023-03-07T15:18:11.183Z,3.67
2023-03-07T15:20:39.816Z,4.50
2023-03-07T15:23:09.406Z,4.68
2023-03-07T15:25:39.148Z,4.13
2023-03-07T15:28:18.651Z,4.65
2023-03-07T15:30:52.140Z,3.90
2023-03-07T15:33:25.878Z,3.97
2023-03-07T15:36:19.682Z,4.78
2023-03-07T15:38:49.089Z,4.43
2023-03-07T15:41:31.676Z,3.92
2023-03-07T15:44:17.607Z,3.92
2023-03-07T15:46:48.661Z,3.63
2023-03-07T15:49:23.796Z,4.13
2023-03-07T15:51:54.393Z,4.20
2023-03-07T15:54:32.028Z,4.50
2023-03-07T15:57:02.897Z,3.45
2023-03-07T15:59:34.894Z,3.33
2023-03-07T16:02:34.582Z,3.90
2023-03-07T16:05:04.352Z,3.78
2023-03-07T16:07:32.271Z,3.67
2023-03-07T16:10:00.331Z,4.03
2023-03-07T16:12:28.302Z,3.53
2023-03-07T16:15:05.252Z,3.08
2023-03-07T16:17:37.201Z,3.47
2023-03-07T16:20:05.887Z,3.50
2023-03-07T16:22:33.890Z,4.10
2023-03-07T16:25:02.508Z,3.80
2023-03-07T16:27:30.449Z,4.13
2023-03-07T16:30:00.257Z,3.80
2023-03-07T16:32:28.345Z,3.67
2023-03-07T16:34:56.449Z,4.03
2023-03-07T16:37:24.453Z,4.20
2023-03-07T16:39:52.359Z,3.83
2023-03-07T16:42:23.969Z,4.07
2023-03-07T16:44:52.572Z,3.45
2023-03-07T16:47:22.044Z,3.88
2023-03-07T16:49:51.064Z,4.07
2023-03-07T16:52:19.047Z,3.80
2023-03-07T16:54:48.478Z,3.60
2023-03-07T16:57:18.247Z,3.90
2023-03-07T16:59:47.891Z,3.88
2023-03-07T17:02:18.289Z,4.30
2023-03-07T17:04:47.889Z,4.28
2023-03-07T17:07:20.108Z,3.85
2023-03-07T17:09:48.083Z,4.03
2023-03-07T17:12:16.764Z,4.03
2023-03-07T17:14:45.286Z,3.33
2023-03-07T17:17:19.637Z,4.20
2023-03-07T17:19:49.048Z,4.18
2023-03-07T17:22:18.787Z,3.78
2023-03-07T17:24:47.959Z,4.30
2023-03-07T17:27:15.944Z,4.57
2023-03-07T17:29:46.009Z,4.55
2023-03-07T17:32:13.986Z,3.78
2023-03-07T17:34:42.273Z,4.15
2023-03-07T17:37:12.752Z,3.80
2023-03-07T17:39:41.385Z,3.08
2023-03-07T17:42:09.411Z,3.67
2023-03-07T17:44:37.328Z,3.42
2023-03-07T17:47:06.096Z,3.63
2023-03-07T17:49:35.102Z,4.53
2023-03-07T17:52:03.638Z,4.50
2023-03-07T17:54:33.382Z,3.80
2023-03-07T17:57:01.409Z,4.30
2023-03-07T17:59:31.045Z,5.03
2023-03-07T18:01:59.220Z,4.57
2023-03-07T18:04:29.266Z,9.23
2023-03-07T18:06:57.193Z,31.70
2023-03-07T18:09:26.604Z,15.40
2023-03-07T18:11:55.677Z,5.60
2023-03-07T18:14:24.019Z,4.35
2023-03-07T18:16:53.363Z,5.32
2023-03-07T18:19:32.372Z,5.18
2023-03-07T18:22:00.570Z,6.00
2023-03-07T18:24:30.328Z,5.03
2023-03-07T18:27:00.564Z,5.13
2023-03-07T18:29:30.088Z,5.45
2023-03-07T19:33:14.059Z,5.20
2023-03-07T19:35:42.262Z,5.72
2023-03-07T19:38:19.571Z,4.53
2023-03-07T19:43:51.146Z,4.05
2023-03-07T20:03:29.414Z,4.32
2023-03-07T20:05:59.756Z,4.25
2023-03-07T20:14:19.048Z,6.15
2023-03-07T20:17:12.582Z,5.20
2023-03-07T20:19:43.068Z,5.13
2023-03-07T20:22:11.773Z,5.07
2023-03-07T20:24:40.295Z,4.72
2023-03-07T20:30:49.663Z,4.93
2023-03-07T20:33:41.281Z,4.43
2023-03-07T20:45:14.577Z,5.93
2023-03-07T20:47:59.853Z,6.18
2023-03-07T20:50:33.582Z,5.38
2023-03-07T20:55:38.264Z,6.50
2023-03-07T21:00:44.199Z,6.18
2023-03-07T21:04:07.490Z,5.88
2023-03-07T21:06:39.470Z,6.75
2023-03-07T21:09:24.570Z,6.43
2023-03-07T21:11:53.019Z,6.82
2023-03-07T21:14:30.778Z,6.50
2023-03-07T21:16:59.387Z,6.53
2023-03-07T21:22:25.773Z,6.32
2023-03-07T21:27:51.925Z,6.45
2023-03-07T21:30:19.960Z,6.75
2023-03-07T21:32:51.623Z,6.75
2023-03-07T21:35:21.947Z,5.28
2023-03-07T21:43:12.760Z,9.55
2023-03-07T21:54:09.032Z,5.38
2023-03-07T21:56:36.564Z,6.18
2023-03-07T21:59:04.097Z,5.70
2023-03-07T22:01:31.696Z,6.97
2023-03-07T22:04:00.291Z,4.90
2023-03-07T22:06:29.278Z,5.45
2023-03-07T22:08:57.592Z,5.03
2023-03-07T22:11:26.492Z,6.20
2023-03-07T22:13:54.070Z,5.45
2023-03-07T22:16:22.258Z,5.40
2023-03-07T22:18:53.974Z,5.47
2023-03-07T22:21:24.798Z,5.38
2023-03-07T22:23:52.412Z,5.75
2023-03-07T22:26:19.898Z,5.38
2023-03-07T22:28:48.735Z,5.30
2023-03-07T22:31:16.317Z,5.35
2023-03-07T22:33:43.843Z,4.93
2023-03-07T22:36:13.483Z,4.38
2023-03-07T22:38:41.782Z,4.78
2023-03-07T22:41:12.079Z,4.50
2023-03-07T22:43:39.916Z,5.05
2023-03-07T22:46:09.805Z,4.43
2023-03-07T22:48:38.186Z,4.40
2023-03-07T22:51:06.549Z,4.72
2023-03-07T22:53:35.531Z,4.97
2023-03-07T22:56:03.041Z,4.60
2023-03-07T22:58:30.748Z,4.80
2023-03-07T23:00:58.439Z,4.53
2023-03-07T23:03:27.391Z,4.20
2023-03-07T23:06:02.010Z,4.63
2023-03-07T23:08:29.501Z,4.93
2023-03-07T23:11:01.321Z,4.28
2023-03-07T23:13:28.917Z,4.63
2023-03-07T23:15:56.535Z,5.60
2023-03-07T23:18:24.123Z,4.60
2023-03-07T23:20:53.015Z,4.82
2023-03-07T23:23:20.543Z,4.13
2023-03-07T23:25:48.126Z,4.63
2023-03-07T23:28:15.747Z,5.00
2023-03-07T23:30:43.479Z,5.43
2023-03-07T23:33:11.004Z,5.13
2023-03-07T23:35:38.673Z,5.28
2023-03-07T23:38:07.840Z,6.40
2023-03-07T23:40:37.620Z,5.10
2023-03-07T23:43:05.331Z,4.95
2023-03-07T23:45:33.344Z,4.60
2023-03-07T23:48:00.895Z,5.13
2023-03-07T23:50:28.666Z,4.78
2023-03-07T23:52:56.251Z,5.22
2023-03-07T23:55:25.209Z,5.53
2023-03-07T23:57:52.780Z,5.07
